sensor_id;sensor_type;location;lat;lon;timestamp;P1;durP1;ratioP1;P2;durP2;ratioP2
83719;SDS011;73702;49.668;8.544;2023-12-29T00:00:11;22.08;;;4.40;;
83719;SDS011;73702;49.668;8.544;2023-12-29T00:02:38;14.40;;;3.45;;
83719;SDS011;73702;49.668;8.544;2023-12-29T00:05:05;17.23;;;3.83;;
83719;SDS011;73702;49.668;8.544;2023-12-29T00:07:31;21.05;;;4.40;;
83719;SDS011;73702;49.668;8.544;2023-12-29T00:09:58;11.40;;;3.35;;
83719;SDS011;73702;49.668;8.544;2023-12-29T00:12:24;26.58;;;4.53;;
83719;SDS011;73702;49.668;8.544;2023-12-29T00:14:51;19.08;;;3.85;;
83719;SDS011;73702;49.668;8.544;2023-12-29T00:17:17;14.35;;;4.10;;
83719;SDS011;73702;49.668;8.544;2023-12-29T00:19:44;15.02;;;3.38;;
83719;SDS011;73702;49.668;8.544;2023-12-29T00:22:11;15.13;;;3.50;;
83719;SDS011;73702;49.668;8.544;2023-12-29T00:24:37;15.70;;;3.75;;
83719;SDS011;73702;49.668;8.544;2023-12-29T00:27:04;11.32;;;3.38;;
83719;SDS011;73702;49.668;8.544;2023-12-29T00:29:31;14.00;;;3.30;;
83719;SDS011;73702;49.668;8.544;2023-12-29T00:31:58;20.17;;;3.70;;
83719;SDS011;73702;49.668;8.544;2023-12-29T00:34:25;26.50;;;4.53;;
83719;SDS011;73702;49.668;8.544;2023-12-29T00:36:52;10.93;;;3.63;;
83719;SDS011;73702;49.668;8.544;2023-12-29T00:39:18;20.40;;;4.20;;
83719;SDS011;73702;49.668;8.544;2023-12-29T00:41:45;20.90;;;4.35;;
83719;SDS011;73702;49.668;8.544;2023-12-29T00:44:11;15.32;;;3.65;;
83719;SDS011;73702;49.668;8.544;2023-12-29T00:46:38;16.27;;;3.45;;
83719;SDS011;73702;49.668;8.544;2023-12-29T00:49:05;21.10;;;4.07;;
83719;SDS011;73702;49.668;8.544;2023-12-29T00:51:32;27.77;;;4.30;;
83719;SDS011;73702;49.668;8.544;2023-12-29T00:53:58;11.93;;;2.97;;
83719;SDS011;73702;49.668;8.544;2023-12-29T00:56:25;27.15;;;4.65;;
83719;SDS011;73702;49.668;8.544;2023-12-29T00:58:51;15.45;;;3.40;;
83719;SDS011;73702;49.668;8.544;2023-12-29T01:01:17;17.38;;;3.65;;
83719;SDS011;73702;49.668;8.544;2023-12-29T01:03:44;16.13;;;3.65;;
83719;SDS011;73702;49.668;8.544;2023-12-29T01:06:11;13.38;;;3.20;;
83719;SDS011;73702;49.668;8.544;2023-12-29T01:08:37;25.65;;;4.43;;
83719;SDS011;73702;49.668;8.544;2023-12-29T01:11:04;14.10;;;3.38;;
83719;SDS011;73702;49.668;8.544;2023-12-29T01:13:30;20.17;;;3.42;;
83719;SDS011;73702;49.668;8.544;2023-12-29T01:15:57;18.83;;;3.75;;
83719;SDS011;73702;49.668;8.544;2023-12-29T01:18:23;20.45;;;4.05;;
83719;SDS011;73702;49.668;8.544;2023-12-29T01:20:50;12.38;;;3.40;;
83719;SDS011;73702;49.668;8.544;2023-12-29T01:23:16;14.55;;;3.15;;
83719;SDS011;73702;49.668;8.544;2023-12-29T01:25:43;15.20;;;3.13;;
83719;SDS011;73702;49.668;8.544;2023-12-29T01:28:10;19.30;;;3.80;;
83719;SDS011;73702;49.668;8.544;2023-12-29T01:30:37;22.02;;;3.83;;
83719;SDS011;73702;49.668;8.544;2023-12-29T01:33:03;16.17;;;3.25;;
83719;SDS011;73702;49.668;8.544;2023-12-29T01:35:30;21.58;;;3.75;;
83719;SDS011;73702;49.668;8.544;2023-12-29T01:37:56;13.50;;;3.80;;
83719;SDS011;73702;49.668;8.544;2023-12-29T01:40:23;11.45;;;3.05;;
83719;SDS011;73702;49.668;8.544;2023-12-29T01:42:50;10.45;;;3.10;;
83719;SDS011;73702;49.668;8.544;2023-12-29T01:45:20;16.08;;;3.50;;
83719;SDS011;73702;49.668;8.544;2023-12-29T01:47:47;18.35;;;4.03;;
83719;SDS011;73702;49.668;8.544;2023-12-29T01:50:14;15.70;;;3.70;;
83719;SDS011;73702;49.668;8.544;2023-12-29T01:52:42;20.30;;;3.80;;
83719;SDS011;73702;49.668;8.544;2023-12-29T01:55:10;15.88;;;3.17;;
83719;SDS011;73702;49.668;8.544;2023-12-29T01:57:38;20.00;;;3.45;;
83719;SDS011;73702;49.668;8.544;2023-12-29T02:00:05;16.00;;;2.72;;
83719;SDS011;73702;49.668;8.544;2023-12-29T02:02:32;20.33;;;3.63;;
83719;SDS011;73702;49.668;8.544;2023-12-29T02:04:58;13.20;;;2.90;;
83719;SDS011;73702;49.668;8.544;2023-12-29T02:07:26;13.02;;;2.95;;
83719;SDS011;73702;49.668;8.544;2023-12-29T02:09:53;13.23;;;2.90;;
83719;SDS011;73702;49.668;8.544;2023-12-29T02:12:20;17.83;;;3.45;;
83719;SDS011;73702;49.668;8.544;2023-12-29T02:14:47;17.30;;;3.25;;
83719;SDS011;73702;49.668;8.544;2023-12-29T02:17:27;12.10;;;2.78;;
83719;SDS011;73702;49.668;8.544;2023-12-29T02:19:54;12.00;;;2.78;;
83719;SDS011;73702;49.668;8.544;2023-12-29T02:22:21;20.80;;;3.40;;
83719;SDS011;73702;49.668;8.544;2023-12-29T02:24:48;16.88;;;3.58;;
83719;SDS011;73702;49.668;8.544;2023-12-29T02:29:43;21.17;;;3.63;;
83719;SDS011;73702;49.668;8.544;2023-12-29T02:32:11;11.52;;;2.88;;
83719;SDS011;73702;49.668;8.544;2023-12-29T02:34:40;16.75;;;2.88;;
83719;SDS011;73702;49.668;8.544;2023-12-29T02:37:08;18.60;;;3.58;;
83719;SDS011;73702;49.668;8.544;2023-12-29T02:39:36;26.65;;;4.00;;
83719;SDS011;73702;49.668;8.544;2023-12-29T02:42:03;15.75;;;3.42;;
83719;SDS011;73702;49.668;8.544;2023-12-29T02:44:29;12.48;;;2.63;;
83719;SDS011;73702;49.668;8.544;2023-12-29T02:46:56;22.60;;;3.92;;
83719;SDS011;73702;49.668;8.544;2023-12-29T02:49:22;11.95;;;3.10;;
83719;SDS011;73702;49.668;8.544;2023-12-29T02:51:49;12.00;;;2.88;;
83719;SDS011;73702;49.668;8.544;2023-12-29T02:54:15;16.42;;;3.38;;
83719;SDS011;73702;49.668;8.544;2023-12-29T02:56:42;20.10;;;3.92;;
83719;SDS011;73702;49.668;8.544;2023-12-29T02:59:08;19.63;;;3.40;;
83719;SDS011;73702;49.668;8.544;2023-12-29T03:01:35;26.17;;;3.85;;
83719;SDS011;73702;49.668;8.544;2023-12-29T03:04:01;17.45;;;3.05;;
83719;SDS011;73702;49.668;8.544;2023-12-29T03:06:28;15.82;;;3.05;;
83719;SDS011;73702;49.668;8.544;2023-12-29T03:08:55;13.38;;;2.85;;
83719;SDS011;73702;49.668;8.544;2023-12-29T03:11:23;12.45;;;2.60;;
83719;SDS011;73702;49.668;8.544;2023-12-29T03:13:49;11.20;;;2.67;;
83719;SDS011;73702;49.668;8.544;2023-12-29T03:16:16;16.33;;;2.95;;
83719;SDS011;73702;49.668;8.544;2023-12-29T03:18:42;23.13;;;3.80;;
83719;SDS011;73702;49.668;8.544;2023-12-29T03:21:09;18.60;;;3.20;;
83719;SDS011;73702;49.668;8.544;2023-12-29T03:23:35;18.08;;;3.35;;
83719;SDS011;73702;49.668;8.544;2023-12-29T03:26:02;17.92;;;2.83;;
83719;SDS011;73702;49.668;8.544;2023-12-29T03:28:28;15.00;;;2.97;;
83719;SDS011;73702;49.668;8.544;2023-12-29T03:30:55;13.50;;;2.83;;
83719;SDS011;73702;49.668;8.544;2023-12-29T03:33:22;16.10;;;3.15;;
83719;SDS011;73702;49.668;8.544;2023-12-29T03:35:48;24.02;;;3.97;;
83719;SDS011;73702;49.668;8.544;2023-12-29T03:38:14;16.83;;;2.97;;
83719;SDS011;73702;49.668;8.544;2023-12-29T03:40:41;23.38;;;3.53;;
83719;SDS011;73702;49.668;8.544;2023-12-29T03:43:08;16.67;;;3.05;;
83719;SDS011;73702;49.668;8.544;2023-12-29T03:45:34;12.77;;;2.90;;
83719;SDS011;73702;49.668;8.544;2023-12-29T03:48:01;10.93;;;2.50;;
83719;SDS011;73702;49.668;8.544;2023-12-29T03:50:28;19.45;;;3.50;;
83719;SDS011;73702;49.668;8.544;2023-12-29T03:52:54;15.93;;;2.75;;
83719;SDS011;73702;49.668;8.544;2023-12-29T03:55:21;16.13;;;2.85;;
83719;SDS011;73702;49.668;8.544;2023-12-29T03:57:47;18.77;;;3.13;;
83719;SDS011;73702;49.668;8.544;2023-12-29T04:00:14;14.23;;;3.22;;
83719;SDS011;73702;49.668;8.544;2023-12-29T04:02:40;30.40;;;4.35;;
83719;SDS011;73702;49.668;8.544;2023-12-29T04:05:08;18.80;;;3.47;;
83719;SDS011;73702;49.668;8.544;2023-12-29T04:07:35;11.85;;;2.40;;
83719;SDS011;73702;49.668;8.544;2023-12-29T04:10:01;11.63;;;2.30;;
83719;SDS011;73702;49.668;8.544;2023-12-29T04:12:28;19.42;;;3.38;;
83719;SDS011;73702;49.668;8.544;2023-12-29T04:14:54;13.60;;;2.50;;
83719;SDS011;73702;49.668;8.544;2023-12-29T04:17:21;13.55;;;2.50;;
83719;SDS011;73702;49.668;8.544;2023-12-29T04:19:47;17.10;;;2.72;;
83719;SDS011;73702;49.668;8.544;2023-12-29T04:22:14;15.70;;;2.67;;
83719;SDS011;73702;49.668;8.544;2023-12-29T04:24:40;11.95;;;2.25;;
83719;SDS011;73702;49.668;8.544;2023-12-29T04:27:07;15.93;;;2.45;;
83719;SDS011;73702;49.668;8.544;2023-12-29T04:29:33;20.98;;;3.22;;
83719;SDS011;73702;49.668;8.544;2023-12-29T04:32:00;16.02;;;2.80;;
83719;SDS011;73702;49.668;8.544;2023-12-29T04:34:26;11.65;;;2.20;;
83719;SDS011;73702;49.668;8.544;2023-12-29T04:36:53;15.18;;;2.55;;
83719;SDS011;73702;49.668;8.544;2023-12-29T04:39:19;14.95;;;2.72;;
83719;SDS011;73702;49.668;8.544;2023-12-29T04:41:45;20.50;;;2.97;;
83719;SDS011;73702;49.668;8.544;2023-12-29T04:44:12;12.27;;;2.28;;
83719;SDS011;73702;49.668;8.544;2023-12-29T04:46:38;23.58;;;3.22;;
83719;SDS011;73702;49.668;8.544;2023-12-29T04:49:04;17.17;;;2.60;;
83719;SDS011;73702;49.668;8.544;2023-12-29T04:51:31;13.48;;;2.38;;
83719;SDS011;73702;49.668;8.544;2023-12-29T04:53:57;15.75;;;2.47;;
83719;SDS011;73702;49.668;8.544;2023-12-29T04:56:24;12.38;;;2.53;;
83719;SDS011;73702;49.668;8.544;2023-12-29T04:58:53;20.80;;;2.80;;
83719;SDS011;73702;49.668;8.544;2023-12-29T05:01:19;20.35;;;2.95;;
83719;SDS011;73702;49.668;8.544;2023-12-29T05:03:46;18.25;;;2.92;;
83719;SDS011;73702;49.668;8.544;2023-12-29T05:06:13;21.27;;;3.08;;
83719;SDS011;73702;49.668;8.544;2023-12-29T05:08:39;18.58;;;2.88;;
83719;SDS011;73702;49.668;8.544;2023-12-29T05:11:06;13.73;;;2.80;;
83719;SDS011;73702;49.668;8.544;2023-12-29T05:13:32;13.60;;;2.20;;
83719;SDS011;73702;49.668;8.544;2023-12-29T05:15:59;16.98;;;2.75;;
83719;SDS011;73702;49.668;8.544;2023-12-29T05:18:27;13.13;;;2.30;;
83719;SDS011;73702;49.668;8.544;2023-12-29T05:20:54;22.65;;;2.97;;
83719;SDS011;73702;49.668;8.544;2023-12-29T05:23:21;16.85;;;2.75;;
83719;SDS011;73702;49.668;8.544;2023-12-29T05:25:47;22.45;;;2.90;;
83719;SDS011;73702;49.668;8.544;2023-12-29T05:28:13;18.48;;;3.25;;
83719;SDS011;73702;49.668;8.544;2023-12-29T05:30:40;14.80;;;2.33;;
83719;SDS011;73702;49.668;8.544;2023-12-29T05:33:07;13.57;;;2.67;;
83719;SDS011;73702;49.668;8.544;2023-12-29T05:35:33;11.77;;;2.33;;
83719;SDS011;73702;49.668;8.544;2023-12-29T05:38:00;14.32;;;2.53;;
83719;SDS011;73702;49.668;8.544;2023-12-29T05:40:27;13.85;;;2.67;;
83719;SDS011;73702;49.668;8.544;2023-12-29T05:42:53;26.55;;;3.60;;
83719;SDS011;73702;49.668;8.544;2023-12-29T05:45:19;13.77;;;2.65;;
83719;SDS011;73702;49.668;8.544;2023-12-29T05:47:46;16.88;;;2.78;;
83719;SDS011;73702;49.668;8.544;2023-12-29T05:50:13;10.10;;;2.30;;
83719;SDS011;73702;49.668;8.544;2023-12-29T05:52:39;22.52;;;3.20;;
83719;SDS011;73702;49.668;8.544;2023-12-29T05:55:06;13.48;;;2.15;;
83719;SDS011;73702;49.668;8.544;2023-12-29T05:57:32;13.32;;;2.80;;
83719;SDS011;73702;49.668;8.544;2023-12-29T05:59:59;10.45;;;1.98;;
83719;SDS011;73702;49.668;8.544;2023-12-29T06:02:25;21.50;;;3.10;;
83719;SDS011;73702;49.668;8.544;2023-12-29T06:04:52;25.85;;;3.60;;
83719;SDS011;73702;49.668;8.544;2023-12-29T06:07:18;15.90;;;2.60;;
83719;SDS011;73702;49.668;8.544;2023-12-29T06:09:45;16.25;;;2.78;;
83719;SDS011;73702;49.668;8.544;2023-12-29T06:12:12;19.45;;;2.90;;
83719;SDS011;73702;49.668;8.544;2023-12-29T06:14:39;12.50;;;2.40;;
83719;SDS011;73702;49.668;8.544;2023-12-29T06:17:06;9.93;;;2.10;;
83719;SDS011;73702;49.668;8.544;2023-12-29T06:19:32;15.02;;;2.45;;
83719;SDS011;73702;49.668;8.544;2023-12-29T06:21:59;29.73;;;3.88;;
83719;SDS011;73702;49.668;8.544;2023-12-29T06:24:25;16.90;;;4.20;;
83719;SDS011;73702;49.668;8.544;2023-12-29T06:26:52;18.35;;;4.20;;
83719;SDS011;73702;49.668;8.544;2023-12-29T06:29:18;18.92;;;4.43;;
83719;SDS011;73702;49.668;8.544;2023-12-29T06:31:45;25.92;;;5.45;;
83719;SDS011;73702;49.668;8.544;2023-12-29T06:34:11;19.08;;;4.30;;
83719;SDS011;73702;49.668;8.544;2023-12-29T06:36:38;10.13;;;3.72;;
83719;SDS011;73702;49.668;8.544;2023-12-29T06:39:05;23.80;;;4.78;;
83719;SDS011;73702;49.668;8.544;2023-12-29T06:41:31;24.95;;;4.70;;
83719;SDS011;73702;49.668;8.544;2023-12-29T06:43:58;19.35;;;4.65;;
83719;SDS011;73702;49.668;8.544;2023-12-29T06:46:24;15.05;;;3.97;;
83719;SDS011;73702;49.668;8.544;2023-12-29T06:48:51;20.55;;;4.38;;
83719;SDS011;73702;49.668;8.544;2023-12-29T06:51:18;13.80;;;3.97;;
83719;SDS011;73702;49.668;8.544;2023-12-29T06:53:45;21.77;;;4.68;;
83719;SDS011;73702;49.668;8.544;2023-12-29T06:56:13;17.50;;;4.22;;
83719;SDS011;73702;49.668;8.544;2023-12-29T06:58:40;14.40;;;4.20;;
83719;SDS011;73702;49.668;8.544;2023-12-29T07:01:06;10.25;;;3.42;;
83719;SDS011;73702;49.668;8.544;2023-12-29T07:03:34;18.40;;;4.07;;
83719;SDS011;73702;49.668;8.544;2023-12-29T07:06:01;28.10;;;4.75;;
83719;SDS011;73702;49.668;8.544;2023-12-29T07:08:27;30.48;;;4.63;;
83719;SDS011;73702;49.668;8.544;2023-12-29T07:10:54;24.02;;;3.90;;
83719;SDS011;73702;49.668;8.544;2023-12-29T07:13:20;21.13;;;3.88;;
83719;SDS011;73702;49.668;8.544;2023-12-29T07:15:48;13.93;;;2.28;;
83719;SDS011;73702;49.668;8.544;2023-12-29T07:18:16;14.57;;;2.70;;
83719;SDS011;73702;49.668;8.544;2023-12-29T07:20:42;20.98;;;2.88;;
83719;SDS011;73702;49.668;8.544;2023-12-29T07:23:09;15.52;;;2.58;;
83719;SDS011;73702;49.668;8.544;2023-12-29T07:25:35;10.50;;;1.83;;
83719;SDS011;73702;49.668;8.544;2023-12-29T07:28:02;17.58;;;2.40;;
83719;SDS011;73702;49.668;8.544;2023-12-29T07:30:29;15.88;;;2.05;;
83719;SDS011;73702;49.668;8.544;2023-12-29T07:32:57;13.23;;;1.95;;
83719;SDS011;73702;49.668;8.544;2023-12-29T07:35:23;17.55;;;2.42;;
83719;SDS011;73702;49.668;8.544;2023-12-29T07:37:50;13.48;;;1.85;;
83719;SDS011;73702;49.668;8.544;2023-12-29T07:40:17;10.80;;;1.63;;
83719;SDS011;73702;49.668;8.544;2023-12-29T07:42:44;10.07;;;1.50;;
83719;SDS011;73702;49.668;8.544;2023-12-29T07:45:11;15.10;;;1.88;;
83719;SDS011;73702;49.668;8.544;2023-12-29T07:47:38;10.45;;;1.52;;
83719;SDS011;73702;49.668;8.544;2023-12-29T07:50:05;19.70;;;2.25;;
83719;SDS011;73702;49.668;8.544;2023-12-29T07:52:31;9.23;;;1.35;;
83719;SDS011;73702;49.668;8.544;2023-12-29T07:54:58;16.33;;;1.92;;
83719;SDS011;73702;49.668;8.544;2023-12-29T07:57:24;12.50;;;1.27;;
83719;SDS011;73702;49.668;8.544;2023-12-29T07:59:51;12.15;;;1.45;;
83719;SDS011;73702;49.668;8.544;2023-12-29T08:02:17;14.45;;;1.67;;
83719;SDS011;73702;49.668;8.544;2023-12-29T08:04:44;10.13;;;1.23;;
83719;SDS011;73702;49.668;8.544;2023-12-29T08:07:10;16.77;;;1.80;;
83719;SDS011;73702;49.668;8.544;2023-12-29T08:09:37;11.25;;;1.38;;
83719;SDS011;73702;49.668;8.544;2023-12-29T08:12:03;23.00;;;2.03;;
83719;SDS011;73702;49.668;8.544;2023-12-29T08:14:30;10.75;;;1.30;;
83719;SDS011;73702;49.668;8.544;2023-12-29T08:16:56;27.75;;;2.58;;
83719;SDS011;73702;49.668;8.544;2023-12-29T08:19:23;10.18;;;1.25;;
83719;SDS011;73702;49.668;8.544;2023-12-29T08:21:50;13.98;;;1.63;;
83719;SDS011;73702;49.668;8.544;2023-12-29T08:24:17;8.13;;;1.02;;
83719;SDS011;73702;49.668;8.544;2023-12-29T08:26:44;8.13;;;1.13;;
83719;SDS011;73702;49.668;8.544;2023-12-29T08:29:10;25.27;;;2.85;;
83719;SDS011;73702;49.668;8.544;2023-12-29T08:31:37;20.23;;;2.10;;
83719;SDS011;73702;49.668;8.544;2023-12-29T08:34:03;22.30;;;2.25;;
83719;SDS011;73702;49.668;8.544;2023-12-29T08:36:30;12.55;;;1.63;;
83719;SDS011;73702;49.668;8.544;2023-12-29T08:38:56;17.55;;;2.03;;
83719;SDS011;73702;49.668;8.544;2023-12-29T08:41:23;14.85;;;1.70;;
83719;SDS011;73702;49.668;8.544;2023-12-29T08:43:50;10.05;;;1.75;;
83719;SDS011;73702;49.668;8.544;2023-12-29T08:46:16;58.13;;;5.55;;
83719;SDS011;73702;49.668;8.544;2023-12-29T08:48:42;11.38;;;1.55;;
83719;SDS011;73702;49.668;8.544;2023-12-29T08:51:09;28.60;;;3.08;;
83719;SDS011;73702;49.668;8.544;2023-12-29T08:53:36;14.07;;;1.88;;
83719;SDS011;73702;49.668;8.544;2023-12-29T08:56:02;25.52;;;2.72;;
83719;SDS011;73702;49.668;8.544;2023-12-29T08:58:29;12.90;;;1.75;;
83719;SDS011;73702;49.668;8.544;2023-12-29T09:00:56;13.30;;;1.50;;
83719;SDS011;73702;49.668;8.544;2023-12-29T09:03:22;14.07;;;1.55;;
83719;SDS011;73702;49.668;8.544;2023-12-29T09:05:49;14.00;;;1.70;;
83719;SDS011;73702;49.668;8.544;2023-12-29T09:08:15;21.00;;;2.47;;
83719;SDS011;73702;49.668;8.544;2023-12-29T09:10:42;10.90;;;1.80;;
83719;SDS011;73702;49.668;8.544;2023-12-29T09:13:08;18.08;;;2.00;;
83719;SDS011;73702;49.668;8.544;2023-12-29T09:15:35;12.95;;;1.63;;
83719;SDS011;73702;49.668;8.544;2023-12-29T09:18:02;18.23;;;2.28;;
83719;SDS011;73702;49.668;8.544;2023-12-29T09:20:29;11.05;;;1.90;;
83719;SDS011;73702;49.668;8.544;2023-12-29T09:22:56;11.43;;;2.05;;
83719;SDS011;73702;49.668;8.544;2023-12-29T09:25:22;9.55;;;1.30;;
83719;SDS011;73702;49.668;8.544;2023-12-29T09:27:49;18.00;;;2.10;;
83719;SDS011;73702;49.668;8.544;2023-12-29T09:30:16;13.65;;;1.75;;
83719;SDS011;73702;49.668;8.544;2023-12-29T09:32:43;12.40;;;1.38;;
83719;SDS011;73702;49.668;8.544;2023-12-29T09:35:09;12.18;;;1.77;;
83719;SDS011;73702;49.668;8.544;2023-12-29T09:37:36;12.75;;;1.60;;
83719;SDS011;73702;49.668;8.544;2023-12-29T09:40:02;14.48;;;1.85;;
83719;SDS011;73702;49.668;8.544;2023-12-29T09:42:29;15.45;;;1.70;;
83719;SDS011;73702;49.668;8.544;2023-12-29T09:44:56;8.80;;;1.40;;
83719;SDS011;73702;49.668;8.544;2023-12-29T09:47:23;15.40;;;1.85;;
83719;SDS011;73702;49.668;8.544;2023-12-29T09:49:49;11.55;;;1.45;;
83719;SDS011;73702;49.668;8.544;2023-12-29T09:54:43;11.90;;;1.58;;
83719;SDS011;73702;49.668;8.544;2023-12-29T09:57:10;23.15;;;2.33;;
83719;SDS011;73702;49.668;8.544;2023-12-29T09:59:37;12.68;;;1.67;;
83719;SDS011;73702;49.668;8.544;2023-12-29T10:04:31;12.75;;;2.50;;
83719;SDS011;73702;49.668;8.544;2023-12-29T10:06:58;18.60;;;1.98;;
83719;SDS011;73702;49.668;8.544;2023-12-29T10:09:28;10.77;;;1.48;;
83719;SDS011;73702;49.668;8.544;2023-12-29T10:11:56;22.90;;;2.50;;
83719;SDS011;73702;49.668;8.544;2023-12-29T10:14:24;9.55;;;1.38;;
83719;SDS011;73702;49.668;8.544;2023-12-29T10:16:52;16.23;;;1.80;;
83719;SDS011;73702;49.668;8.544;2023-12-29T10:22:03;8.20;;;1.20;;
83719;SDS011;73702;49.668;8.544;2023-12-29T10:24:32;13.55;;;1.42;;
83719;SDS011;73702;49.668;8.544;2023-12-29T10:26:59;7.90;;;1.27;;
83719;SDS011;73702;49.668;8.544;2023-12-29T10:29:27;11.13;;;1.45;;
83719;SDS011;73702;49.668;8.544;2023-12-29T10:31:54;18.42;;;1.90;;
83719;SDS011;73702;49.668;8.544;2023-12-29T10:34:21;19.20;;;2.17;;
83719;SDS011;73702;49.668;8.544;2023-12-29T10:36:49;11.93;;;1.63;;
83719;SDS011;73702;49.668;8.544;2023-12-29T10:39:15;24.23;;;2.47;;
83719;SDS011;73702;49.668;8.544;2023-12-29T10:41:42;11.27;;;1.30;;
83719;SDS011;73702;49.668;8.544;2023-12-29T10:44:08;17.90;;;1.92;;
83719;SDS011;73702;49.668;8.544;2023-12-29T10:46:35;18.50;;;2.00;;
83719;SDS011;73702;49.668;8.544;2023-12-29T10:49:12;13.60;;;1.63;;
83719;SDS011;73702;49.668;8.544;2023-12-29T10:51:39;12.75;;;1.20;;
83719;SDS011;73702;49.668;8.544;2023-12-29T10:54:06;10.57;;;1.10;;
83719;SDS011;73702;49.668;8.544;2023-12-29T10:56:32;14.05;;;1.45;;
83719;SDS011;73702;49.668;8.544;2023-12-29T10:59:00;9.05;;;1.10;;
83719;SDS011;73702;49.668;8.544;2023-12-29T11:01:26;18.33;;;1.80;;
83719;SDS011;73702;49.668;8.544;2023-12-29T11:04:00;16.30;;;1.83;;
83719;SDS011;73702;49.668;8.544;2023-12-29T11:06:27;21.83;;;2.25;;
83719;SDS011;73702;49.668;8.544;2023-12-29T11:08:54;16.10;;;1.67;;
83719;SDS011;73702;49.668;8.544;2023-12-29T11:11:21;18.10;;;2.08;;
83719;SDS011;73702;49.668;8.544;2023-12-29T11:13:47;9.32;;;1.30;;
83719;SDS011;73702;49.668;8.544;2023-12-29T11:16:14;20.98;;;1.98;;
83719;SDS011;73702;49.668;8.544;2023-12-29T11:21:08;12.85;;;1.42;;
83719;SDS011;73702;49.668;8.544;2023-12-29T11:23:36;13.68;;;1.52;;
83719;SDS011;73702;49.668;8.544;2023-12-29T11:26:03;9.30;;;1.10;;
83719;SDS011;73702;49.668;8.544;2023-12-29T11:28:29;22.75;;;2.15;;
83719;SDS011;73702;49.668;8.544;2023-12-29T11:30:56;15.73;;;1.55;;
83719;SDS011;73702;49.668;8.544;2023-12-29T11:33:34;15.45;;;1.38;;
83719;SDS011;73702;49.668;8.544;2023-12-29T11:41:16;20.42;;;2.17;;
83719;SDS011;73702;49.668;8.544;2023-12-29T11:43:43;10.73;;;1.10;;
83719;SDS011;73702;49.668;8.544;2023-12-29T11:48:55;15.68;;;1.45;;
83719;SDS011;73702;49.668;8.544;2023-12-29T11:51:41;17.63;;;1.70;;
83719;SDS011;73702;49.668;8.544;2023-12-29T11:54:07;12.85;;;1.42;;
83719;SDS011;73702;49.668;8.544;2023-12-29T11:56:35;13.77;;;1.20;;
83719;SDS011;73702;49.668;8.544;2023-12-29T12:01:34;24.20;;;2.30;;
83719;SDS011;73702;49.668;8.544;2023-12-29T12:04:01;14.48;;;1.42;;
83719;SDS011;73702;49.668;8.544;2023-12-29T12:06:37;19.55;;;1.92;;
83719;SDS011;73702;49.668;8.544;2023-12-29T12:09:15;14.98;;;1.50;;
83719;SDS011;73702;49.668;8.544;2023-12-29T12:11:42;22.70;;;2.25;;
83719;SDS011;73702;49.668;8.544;2023-12-29T12:14:08;13.27;;;1.30;;
83719;SDS011;73702;49.668;8.544;2023-12-29T12:16:47;14.38;;;1.77;;
83719;SDS011;73702;49.668;8.544;2023-12-29T12:19:14;13.60;;;1.50;;
83719;SDS011;73702;49.668;8.544;2023-12-29T12:21:40;15.82;;;1.50;;
83719;SDS011;73702;49.668;8.544;2023-12-29T12:24:07;14.70;;;1.58;;
83719;SDS011;73702;49.668;8.544;2023-12-29T12:26:34;17.00;;;1.83;;
83719;SDS011;73702;49.668;8.544;2023-12-29T12:29:00;13.18;;;1.35;;
83719;SDS011;73702;49.668;8.544;2023-12-29T12:31:27;22.85;;;2.28;;
83719;SDS011;73702;49.668;8.544;2023-12-29T12:33:54;10.05;;;1.30;;
83719;SDS011;73702;49.668;8.544;2023-12-29T12:36:20;11.13;;;1.35;;
83719;SDS011;73702;49.668;8.544;2023-12-29T12:38:54;11.68;;;1.27;;
83719;SDS011;73702;49.668;8.544;2023-12-29T12:41:21;21.90;;;2.40;;
83719;SDS011;73702;49.668;8.544;2023-12-29T12:44:30;11.82;;;1.58;;
83719;SDS011;73702;49.668;8.544;2023-12-29T12:46:44;21.73;;;2.20;;
83719;SDS011;73702;49.668;8.544;2023-12-29T12:49:14;14.85;;;1.70;;
83719;SDS011;73702;49.668;8.544;2023-12-29T12:51:41;17.90;;;1.90;;
83719;SDS011;73702;49.668;8.544;2023-12-29T12:54:09;11.43;;;1.38;;
83719;SDS011;73702;49.668;8.544;2023-12-29T12:56:36;16.80;;;1.70;;
83719;SDS011;73702;49.668;8.544;2023-12-29T12:59:03;7.90;;;1.00;;
83719;SDS011;73702;49.668;8.544;2023-12-29T13:01:30;18.70;;;2.05;;
83719;SDS011;73702;49.668;8.544;2023-12-29T13:04:01;18.30;;;2.25;;
83719;SDS011;73702;49.668;8.544;2023-12-29T13:06:28;14.93;;;1.55;;
83719;SDS011;73702;49.668;8.544;2023-12-29T13:08:54;11.63;;;1.17;;
83719;SDS011;73702;49.668;8.544;2023-12-29T13:11:21;15.77;;;1.67;;
83719;SDS011;73702;49.668;8.544;2023-12-29T13:13:48;12.95;;;1.30;;
83719;SDS011;73702;49.668;8.544;2023-12-29T13:16:15;7.68;;;0.90;;
83719;SDS011;73702;49.668;8.544;2023-12-29T13:18:41;8.73;;;0.90;;
83719;SDS011;73702;49.668;8.544;2023-12-29T13:21:08;20.83;;;1.98;;
83719;SDS011;73702;49.668;8.544;2023-12-29T13:23:35;17.63;;;1.77;;
83719;SDS011;73702;49.668;8.544;2023-12-29T13:26:03;12.90;;;1.40;;
83719;SDS011;73702;49.668;8.544;2023-12-29T13:28:31;17.45;;;1.67;;
83719;SDS011;73702;49.668;8.544;2023-12-29T13:31:00;12.27;;;1.27;;
83719;SDS011;73702;49.668;8.544;2023-12-29T13:33:42;18.67;;;2.15;;
83719;SDS011;73702;49.668;8.544;2023-12-29T13:36:35;15.55;;;1.52;;
83719;SDS011;73702;49.668;8.544;2023-12-29T13:39:14;9.52;;;1.10;;
83719;SDS011;73702;49.668;8.544;2023-12-29T13:41:42;22.05;;;2.05;;
83719;SDS011;73702;49.668;8.544;2023-12-29T13:44:10;8.77;;;1.23;;
83719;SDS011;73702;49.668;8.544;2023-12-29T13:46:36;21.67;;;2.08;;
83719;SDS011;73702;49.668;8.544;2023-12-29T13:49:04;14.38;;;1.75;;
83719;SDS011;73702;49.668;8.544;2023-12-29T13:51:32;21.98;;;2.13;;
83719;SDS011;73702;49.668;8.544;2023-12-29T13:54:02;11.40;;;1.20;;
83719;SDS011;73702;49.668;8.544;2023-12-29T13:56:28;14.70;;;1.60;;
83719;SDS011;73702;49.668;8.544;2023-12-29T13:58:55;11.63;;;1.50;;
83719;SDS011;73702;49.668;8.544;2023-12-29T14:01:22;13.80;;;1.48;;
83719;SDS011;73702;49.668;8.544;2023-12-29T14:03:50;11.20;;;1.33;;
83719;SDS011;73702;49.668;8.544;2023-12-29T14:06:21;10.80;;;1.05;;
83719;SDS011;73702;49.668;8.544;2023-12-29T14:08:48;9.52;;;1.33;;
83719;SDS011;73702;49.668;8.544;2023-12-29T14:11:14;11.30;;;1.65;;
83719;SDS011;73702;49.668;8.544;2023-12-29T14:13:41;17.17;;;1.92;;
83719;SDS011;73702;49.668;8.544;2023-12-29T14:16:08;26.15;;;2.55;;
83719;SDS011;73702;49.668;8.544;2023-12-29T14:21:02;10.65;;;1.33;;
83719;SDS011;73702;49.668;8.544;2023-12-29T14:23:29;9.98;;;1.20;;
83719;SDS011;73702;49.668;8.544;2023-12-29T14:26:02;12.05;;;1.42;;
83719;SDS011;73702;49.668;8.544;2023-12-29T14:28:29;15.70;;;1.85;;
83719;SDS011;73702;49.668;8.544;2023-12-29T14:31:05;8.82;;;1.15;;
83719;SDS011;73702;49.668;8.544;2023-12-29T14:33:32;35.55;;;3.33;;
83719;SDS011;73702;49.668;8.544;2023-12-29T14:35:59;11.25;;;1.45;;
83719;SDS011;73702;49.668;8.544;2023-12-29T14:38:25;11.30;;;1.13;;
83719;SDS011;73702;49.668;8.544;2023-12-29T14:40:52;16.13;;;1.70;;
83719;SDS011;73702;49.668;8.544;2023-12-29T14:43:18;14.02;;;1.38;;
83719;SDS011;73702;49.668;8.544;2023-12-29T14:45:45;16.95;;;1.80;;
83719;SDS011;73702;49.668;8.544;2023-12-29T14:48:12;10.75;;;1.20;;
83719;SDS011;73702;49.668;8.544;2023-12-29T14:50:39;14.80;;;1.67;;
83719;SDS011;73702;49.668;8.544;2023-12-29T14:53:05;11.80;;;1.10;;
83719;SDS011;73702;49.668;8.544;2023-12-29T14:55:32;14.18;;;1.70;;
83719;SDS011;73702;49.668;8.544;2023-12-29T14:57:59;7.47;;;0.98;;
83719;SDS011;73702;49.668;8.544;2023-12-29T15:00:26;12.18;;;1.10;;